createdAt,value
2023-05-10T00:00:05.860Z,16.40
2023-05-10T00:02:40.784Z,16.40
2023-05-10T00:05:08.777Z,16.30
2023-05-10T00:07:36.214Z,16.30
2023-05-10T00:10:05.730Z,16.20
2023-05-10T00:12:33.333Z,16.10
2023-05-10T00:15:00.415Z,16.10
2023-05-10T00:17:27.625Z,16.10
2023-05-10T00:20:01.803Z,16.10
2023-05-10T00:22:37.508Z,16.10
2023-05-10T00:25:05.039Z,16.10
2023-05-10T00:27:32.173Z,16.10
2023-05-10T00:29:59.420Z,16.00
2023-05-10T00:32:29.832Z,16.00
2023-05-10T00:34:57.101Z,16.00
2023-05-10T00:37:29.616Z,16.00
2023-05-10T00:39:57.589Z,16.00
2023-05-10T00:42:25.007Z,15.90
2023-05-10T00:44:54.829Z,15.90
2023-05-10T00:47:24.251Z,15.90
2023-05-10T00:49:51.896Z,15.90
2023-05-10T00:52:21.044Z,15.90
2023-05-10T00:54:49.959Z,15.90
2023-05-10T00:57:17.249Z,15.90
2023-05-10T00:59:44.906Z,15.90
2023-05-10T01:02:12.394Z,15.90
2023-05-10T01:04:39.864Z,15.90
2023-05-10T01:07:07.193Z,15.90
2023-05-10T01:09:34.816Z,16.00
2023-05-10T01:12:02.696Z,16.00
2023-05-10T01:14:31.458Z,16.00
2023-05-10T01:17:00.418Z,15.90
2023-05-10T01:19:31.929Z,15.90
2023-05-10T01:22:04.400Z,16.00
2023-05-10T01:24:50.248Z,16.00
2023-05-10T01:27:20.952Z,16.00
2023-05-10T01:30:13.630Z,16.00
2023-05-10T01:32:51.743Z,16.00
2023-05-10T01:35:33.104Z,15.90
2023-05-10T01:38:04.146Z,15.90
2023-05-10T01:40:44.098Z,15.90
2023-05-10T01:43:12.499Z,15.80
2023-05-10T01:45:48.622Z,15.70
2023-05-10T01:48:18.900Z,15.60
2023-05-10T01:50:47.535Z,15.60
2023-05-10T01:53:19.016Z,15.50
2023-05-10T01:55:48.629Z,15.50
2023-05-10T01:58:18.143Z,15.50
2023-05-10T02:00:49.728Z,15.40
2023-05-10T02:03:17.276Z,15.40
2023-05-10T02:05:46.622Z,15.30
2023-05-10T02:08:14.651Z,15.30
2023-05-10T02:10:42.315Z,15.20
2023-05-10T02:13:13.965Z,15.20
2023-05-10T02:15:42.967Z,15.30
2023-05-10T02:18:12.904Z,15.30
2023-05-10T02:20:40.919Z,15.30
2023-05-10T02:23:09.237Z,15.30
2023-05-10T02:25:38.108Z,15.30
2023-05-10T02:28:07.119Z,15.30
2023-05-10T02:30:37.045Z,15.30
2023-05-10T02:33:05.498Z,15.40
2023-05-10T02:35:36.135Z,15.30
2023-05-10T02:38:05.299Z,15.30
2023-05-10T02:40:33.339Z,15.30
2023-05-10T02:43:02.468Z,15.30
2023-05-10T02:45:33.305Z,15.20
2023-05-10T02:48:02.653Z,15.10
2023-05-10T02:50:31.264Z,15.10
2023-05-10T02:53:02.911Z,15.00
2023-05-10T02:55:33.682Z,15.00
2023-05-10T02:58:01.858Z,14.90
2023-05-10T03:00:29.190Z,14.70
2023-05-10T03:02:56.672Z,14.70
2023-05-10T03:05:27.586Z,14.70
2023-05-10T03:07:55.760Z,14.60
2023-05-10T03:10:27.713Z,14.70
2023-05-10T03:13:28.168Z,14.60
2023-05-10T03:15:58.932Z,14.70
2023-05-10T03:18:32.972Z,14.70
2023-05-10T03:21:05.186Z,14.70
2023-05-10T03:23:37.301Z,14.70
2023-05-10T03:26:07.001Z,14.80
2023-05-10T03:28:34.999Z,14.80
2023-05-10T03:31:05.529Z,14.80
2023-05-10T03:33:34.037Z,14.70
2023-05-10T03:36:01.645Z,14.70
2023-05-10T03:38:30.522Z,14.70
2023-05-10T03:40:58.023Z,14.70
2023-05-10T03:43:25.153Z,14.70
2023-05-10T03:45:55.105Z,14.70
2023-05-10T03:48:22.241Z,14.60
2023-05-10T03:50:51.865Z,14.60
2023-05-10T03:53:23.293Z,14.50
2023-05-10T03:55:55.357Z,14.50
2023-05-10T03:58:32.181Z,14.60
2023-05-10T04:00:59.364Z,14.50
2023-05-10T04:03:27.348Z,14.60
2023-05-10T04:06:04.708Z,14.50
2023-05-10T04:08:33.950Z,14.50
2023-05-10T04:11:11.470Z,14.60
2023-05-10T04:13:39.370Z,14.60
2023-05-10T04:16:07.048Z,14.70
2023-05-10T04:18:34.080Z,14.70
2023-05-10T04:21:00.943Z,14.70
2023-05-10T04:23:28.706Z,14.70
2023-05-10T04:26:02.074Z,14.70
2023-05-10T04:28:29.133Z,14.60
2023-05-10T04:31:09.896Z,14.70
2023-05-10T04:33:37.571Z,14.70
2023-05-10T04:36:04.633Z,14.70
2023-05-10T04:38:31.730Z,14.70
2023-05-10T04:41:08.799Z,14.70
2023-05-10T04:43:35.938Z,14.70
2023-05-10T04:46:03.355Z,14.70
2023-05-10T04:48:30.352Z,14.70
2023-05-10T04:50:57.562Z,14.70
2023-05-10T04:53:24.545Z,14.80
2023-05-10T04:55:51.331Z,14.80
2023-05-10T04:58:18.078Z,14.80
2023-05-10T05:00:46.088Z,14.90
2023-05-10T05:03:14.224Z,14.90
2023-05-10T05:05:41.343Z,14.90
2023-05-10T05:08:08.391Z,14.90
2023-05-10T05:10:35.191Z,15.00
2023-05-10T05:13:02.215Z,15.10
2023-05-10T05:15:29.590Z,15.10
2023-05-10T05:17:56.553Z,15.20
2023-05-10T05:20:23.569Z,15.30
2023-05-10T05:22:50.504Z,15.30
2023-05-10T05:25:17.898Z,15.40
2023-05-10T05:27:45.039Z,15.40
2023-05-10T05:30:12.152Z,15.40
2023-05-10T05:32:39.171Z,15.40
2023-05-10T05:35:06.805Z,15.40
2023-05-10T05:37:33.770Z,15.50
2023-05-10T05:40:02.635Z,15.50
2023-05-10T05:42:29.666Z,15.50
2023-05-10T05:44:56.470Z,15.60
2023-05-10T05:47:23.859Z,15.60
2023-05-10T05:49:51.853Z,15.60
2023-05-10T05:52:19.154Z,15.60
2023-05-10T05:54:46.349Z,15.60
2023-05-10T05:57:16.508Z,15.50
2023-05-10T05:59:44.948Z,15.50
2023-05-10T06:02:13.018Z,15.50
2023-05-10T06:04:40.698Z,15.50
2023-05-10T06:07:08.432Z,15.50
2023-05-10T06:09:37.418Z,15.50
2023-05-10T06:12:04.396Z,15.50
2023-05-10T06:14:31.600Z,15.60
2023-05-10T06:16:58.373Z,15.60
2023-05-10T06:19:27.574Z,15.60
2023-05-10T06:21:54.286Z,15.70
2023-05-10T06:24:21.023Z,15.80
2023-05-10T06:26:47.898Z,15.80
2023-05-10T06:29:16.301Z,15.80
2023-05-10T06:31:43.225Z,15.70
2023-05-10T06:34:13.278Z,15.60
2023-05-10T06:36:41.111Z,15.60
2023-05-10T06:39:08.284Z,15.60
2023-05-10T06:41:35.154Z,15.70
2023-05-10T06:44:02.180Z,15.70
2023-05-10T06:46:29.205Z,15.70
2023-05-10T06:48:56.064Z,15.70
2023-05-10T06:51:22.835Z,15.70
2023-05-10T06:53:49.597Z,15.70
2023-05-10T06:56:17.635Z,15.70
2023-05-10T06:58:44.910Z,15.80
2023-05-10T07:01:11.994Z,15.80
2023-05-10T07:03:39.047Z,15.90
2023-05-10T07:06:06.215Z,15.90
2023-05-10T07:08:33.234Z,15.90
2023-05-10T07:11:01.146Z,15.90
2023-05-10T07:13:28.280Z,16.00
2023-05-10T07:15:55.335Z,16.10
2023-05-10T07:18:22.398Z,16.20
2023-05-10T07:20:49.352Z,16.20
2023-05-10T07:23:16.377Z,16.20
2023-05-10T07:25:49.269Z,16.30
2023-05-10T07:28:16.435Z,16.30
2023-05-10T07:30:43.698Z,16.40
2023-05-10T07:33:12.278Z,16.40
2023-05-10T07:35:40.389Z,16.50
2023-05-10T07:38:07.737Z,16.50
2023-05-10T07:40:35.060Z,16.50
2023-05-10T07:43:02.675Z,16.40
2023-05-10T07:45:32.246Z,16.30
2023-05-10T07:47:59.528Z,16.50
2023-05-10T07:50:27.943Z,16.60
2023-05-10T07:52:54.836Z,16.70
2023-05-10T07:55:22.365Z,16.80
2023-05-10T07:57:49.380Z,17.00
2023-05-10T08:00:18.173Z,17.20
2023-05-10T08:02:45.243Z,17.50
2023-05-10T08:05:12.237Z,17.60
2023-05-10T08:07:39.422Z,17.80
2023-05-10T08:10:06.847Z,17.90
2023-05-10T08:12:33.576Z,17.90
2023-05-10T08:15:00.355Z,18.00
2023-05-10T08:17:28.550Z,17.90
2023-05-10T08:19:55.539Z,17.90
2023-05-10T08:22:23.408Z,17.90
2023-05-10T08:24:50.575Z,17.90
2023-05-10T08:27:17.498Z,17.90
2023-05-10T08:29:50.177Z,18.00
2023-05-10T08:32:17.862Z,17.90
2023-05-10T08:34:44.759Z,18.00
2023-05-10T08:37:14.501Z,18.00
2023-05-10T08:39:41.855Z,18.10
2023-05-10T08:42:09.360Z,18.20
2023-05-10T08:44:37.455Z,18.30
2023-05-10T08:47:05.698Z,18.30
2023-05-10T08:49:33.810Z,18.50
2023-05-10T08:52:02.841Z,18.60
2023-05-10T08:54:31.014Z,18.70
2023-05-10T08:57:01.570Z,18.60
2023-05-10T08:59:28.655Z,18.70
2023-05-10T09:01:57.064Z,18.70
2023-05-10T09:04:24.116Z,18.80
2023-05-10T09:06:51.730Z,18.60
2023-05-10T09:09:19.333Z,18.60
2023-05-10T09:11:46.344Z,18.50
2023-05-10T09:14:13.525Z,18.40
2023-05-10T09:16:41.263Z,18.30
2023-05-10T09:19:09.603Z,18.20
2023-05-10T09:21:39.588Z,18.10
2023-05-10T09:24:07.351Z,18.10
2023-05-10T09:26:46.239Z,18.00
2023-05-10T09:29:15.208Z,18.00
2023-05-10T09:31:55.679Z,18.00
2023-05-10T09:34:30.504Z,18.20
2023-05-10T09:37:02.231Z,18.20
2023-05-10T09:39:36.550Z,18.40
2023-05-10T09:42:08.016Z,18.30
2023-05-10T09:44:34.868Z,18.30
2023-05-10T09:47:02.707Z,18.30
2023-05-10T09:49:29.581Z,18.40
2023-05-10T09:52:04.520Z,18.60
2023-05-10T09:54:31.470Z,18.70
2023-05-10T09:56:58.628Z,18.70
2023-05-10T09:59:29.032Z,18.70
2023-05-10T10:02:00.778Z,18.70
2023-05-10T10:04:28.277Z,18.80
2023-05-10T10:07:02.584Z,18.90
2023-05-10T10:09:29.972Z,18.80
2023-05-10T10:12:00.534Z,18.80
2023-05-10T10:14:27.303Z,18.90
2023-05-10T10:17:06.627Z,19.00
2023-05-10T10:19:36.788Z,19.00
2023-05-10T10:22:06.851Z,19.10
2023-05-10T10:24:34.073Z,19.10
2023-05-10T10:27:05.835Z,18.80
2023-05-10T10:29:51.171Z,18.60
2023-05-10T10:32:37.594Z,18.40
2023-05-10T10:35:05.484Z,18.30
2023-05-10T10:37:46.258Z,18.50
2023-05-10T10:40:34.825Z,18.50
2023-05-10T10:43:20.947Z,18.60
2023-05-10T10:46:08.021Z,18.70
2023-05-10T10:48:35.075Z,18.70
2023-05-10T10:51:02.250Z,18.80
2023-05-10T10:53:29.983Z,19.00
2023-05-10T10:56:24.746Z,19.00
2023-05-10T10:58:53.469Z,19.10
2023-05-10T11:01:20.681Z,19.10
2023-05-10T11:03:57.014Z,19.00
2023-05-10T11:06:33.386Z,19.00
2023-05-10T11:09:00.989Z,18.90
2023-05-10T11:11:27.974Z,18.90
2023-05-10T11:14:03.246Z,18.90
2023-05-10T11:16:41.175Z,18.90
2023-05-10T11:19:09.381Z,18.90
2023-05-10T11:21:49.076Z,19.10
2023-05-10T11:24:17.393Z,19.30
2023-05-10T11:26:44.665Z,19.50
2023-05-10T11:29:13.334Z,19.70
2023-05-10T11:31:45.273Z,19.80
2023-05-10T11:34:12.138Z,20.00
2023-05-10T11:36:39.230Z,20.00
2023-05-10T11:39:06.712Z,19.90
2023-05-10T11:41:34.129Z,19.80
2023-05-10T11:44:01.012Z,19.80
2023-05-10T11:46:28.651Z,19.90
2023-05-10T11:49:03.092Z,20.00
2023-05-10T11:51:30.194Z,20.00
2023-05-10T11:53:57.791Z,19.90
2023-05-10T11:56:25.761Z,19.50
2023-05-10T11:58:56.751Z,19.40
2023-05-10T12:01:24.370Z,19.10
2023-05-10T12:03:51.528Z,18.80
2023-05-10T12:06:18.788Z,18.50
2023-05-10T12:08:46.737Z,18.30
2023-05-10T12:11:16.710Z,18.20
2023-05-10T12:13:44.036Z,18.20
2023-05-10T12:16:21.542Z,18.30
2023-05-10T12:18:52.505Z,18.50
2023-05-10T12:21:19.760Z,18.70
2023-05-10T12:23:47.467Z,18.90
2023-05-10T12:26:14.249Z,19.10
2023-05-10T12:28:40.984Z,19.10
2023-05-10T12:31:07.863Z,19.00
2023-05-10T12:33:46.880Z,18.90
2023-05-10T12:36:15.295Z,19.00
2023-05-10T12:38:48.594Z,19.00
2023-05-10T12:41:18.972Z,19.10
2023-05-10T12:43:46.442Z,19.10
2023-05-10T12:46:16.553Z,19.20
2023-05-10T12:48:44.401Z,19.10
2023-05-10T12:51:19.934Z,19.20
2023-05-10T12:53:49.658Z,19.20
2023-05-10T12:56:16.464Z,19.30
2023-05-10T12:58:48.739Z,19.20
2023-05-10T13:01:16.003Z,19.20
2023-05-10T13:03:43.969Z,19.30
2023-05-10T13:06:10.610Z,19.40
2023-05-10T13:08:37.197Z,19.50
2023-05-10T13:11:04.079Z,19.40
2023-05-10T13:13:30.850Z,19.40
2023-05-10T13:15:57.536Z,19.40
2023-05-10T13:18:25.498Z,19.50
2023-05-10T13:20:52.346Z,19.40
2023-05-10T13:23:18.939Z,19.40
2023-05-10T13:25:45.611Z,19.60
2023-05-10T13:28:12.338Z,19.60
2023-05-10T13:30:38.999Z,19.70
2023-05-10T13:33:06.163Z,19.70
2023-05-10T13:35:32.909Z,19.70
2023-05-10T13:37:59.743Z,19.80
2023-05-10T13:40:26.428Z,19.80
2023-05-10T13:42:53.942Z,19.90
2023-05-10T13:45:20.769Z,20.00
2023-05-10T13:47:47.399Z,20.00
2023-05-10T13:50:14.113Z,20.10
2023-05-10T13:52:40.884Z,20.10
2023-05-10T13:55:07.923Z,20.10
2023-05-10T13:57:36.711Z,20.20
2023-05-10T14:00:03.666Z,20.20
2023-05-10T14:02:35.669Z,20.20
2023-05-10T14:05:02.456Z,20.20
2023-05-10T14:07:29.071Z,20.20
2023-05-10T14:09:55.723Z,20.30
2023-05-10T14:12:22.518Z,20.30
2023-05-10T14:14:49.193Z,20.40
2023-05-10T14:17:16.170Z,20.30
2023-05-10T14:19:43.014Z,20.20
2023-05-10T14:22:09.631Z,20.10
2023-05-10T14:24:38.619Z,20.10
2023-05-10T14:27:06.896Z,20.10
2023-05-10T14:29:33.836Z,20.20
2023-05-10T14:32:00.542Z,20.30
2023-05-10T14:34:27.334Z,20.30
2023-05-10T14:36:53.931Z,20.50
2023-05-10T14:39:20.625Z,20.60
2023-05-10T14:41:48.142Z,20.70
2023-05-10T14:44:16.244Z,20.80
2023-05-10T14:46:43.012Z,21.00
2023-05-10T14:49:09.888Z,21.00
2023-05-10T14:51:38.023Z,21.00
2023-05-10T14:54:04.765Z,21.00
2023-05-10T14:56:31.409Z,20.90
2023-05-10T14:58:58.231Z,20.80
2023-05-10T15:01:25.434Z,20.80
2023-05-10T15:03:52.862Z,20.80
2023-05-10T15:06:23.953Z,20.70
2023-05-10T15:08:50.638Z,20.50
2023-05-10T15:11:17.353Z,20.40
2023-05-10T15:13:44.050Z,20.30
2023-05-10T15:16:11.562Z,20.30
2023-05-10T15:18:38.299Z,20.30
2023-05-10T15:21:04.990Z,20.40
2023-05-10T15:23:31.805Z,20.50
2023-05-10T15:25:58.489Z,20.60
2023-05-10T15:28:25.282Z,20.70
2023-05-10T15:30:52.449Z,20.70
2023-05-10T15:33:19.219Z,20.80
2023-05-10T15:35:45.937Z,20.70
2023-05-10T15:38:12.599Z,20.60
2023-05-10T15:40:39.355Z,20.40
2023-05-10T15:43:08.950Z,20.50
2023-05-10T15:45:37.462Z,20.50
2023-05-10T15:48:04.836Z,20.50
2023-05-10T15:50:31.558Z,20.50
2023-05-10T15:52:58.282Z,20.60
2023-05-10T15:55:24.892Z,20.60
2023-05-10T15:57:51.645Z,20.60
2023-05-10T16:00:18.948Z,20.70
2023-05-10T16:02:45.736Z,20.70
2023-05-10T16:05:13.914Z,20.70
2023-05-10T16:07:42.006Z,20.60
2023-05-10T16:10:09.957Z,20.60
2023-05-10T16:12:39.081Z,20.70
2023-05-10T16:15:06.261Z,20.80
2023-05-10T16:17:33.072Z,20.70
2023-05-10T16:20:01.067Z,20.80
2023-05-10T16:22:28.875Z,20.80
2023-05-10T16:24:56.741Z,20.70
2023-05-10T16:27:23.622Z,20.50
2023-05-10T16:29:50.249Z,20.40
2023-05-10T16:32:17.134Z,20.20
2023-05-10T16:34:43.776Z,20.10
2023-05-10T16:37:11.285Z,19.80
2023-05-10T16:39:40.597Z,19.80
2023-05-10T16:42:07.387Z,19.80
2023-05-10T16:44:34.235Z,19.90
2023-05-10T16:47:01.103Z,19.80
2023-05-10T16:49:27.848Z,19.80
2023-05-10T16:51:54.790Z,19.90
2023-05-10T16:54:22.005Z,20.10
2023-05-10T16:56:48.728Z,20.20
2023-05-10T16:59:16.397Z,20.30
2023-05-10T17:01:43.249Z,20.40
2023-05-10T17:04:10.122Z,20.60
2023-05-10T17:06:37.479Z,20.70
2023-05-10T17:09:05.603Z,20.70
2023-05-10T17:11:33.829Z,20.60
2023-05-10T17:14:01.314Z,20.40
2023-05-10T17:16:29.106Z,20.20
2023-05-10T17:18:55.895Z,20.00
2023-05-10T17:21:22.723Z,19.80
2023-05-10T17:23:49.378Z,19.60
2023-05-10T17:26:16.954Z,19.40
2023-05-10T17:28:43.639Z,19.20
2023-05-10T17:31:10.472Z,19.10
2023-05-10T17:33:37.515Z,19.10
2023-05-10T17:36:04.364Z,19.00
2023-05-10T17:38:31.195Z,18.90
2023-05-10T17:40:57.828Z,19.00
2023-05-10T17:43:27.411Z,19.00
2023-05-10T17:45:54.196Z,18.90
2023-05-10T17:48:20.807Z,19.00
2023-05-10T17:50:49.310Z,19.00
2023-05-10T17:53:16.384Z,19.00
2023-05-10T17:55:43.707Z,18.80
2023-05-10T17:58:11.275Z,18.60
2023-05-10T18:00:38.222Z,18.50
2023-05-10T18:03:05.394Z,18.50
2023-05-10T18:05:35.723Z,18.40
2023-05-10T18:08:02.530Z,18.40
2023-05-10T18:10:29.207Z,18.40
2023-05-10T18:12:55.820Z,18.30
2023-05-10T18:15:22.922Z,18.30
2023-05-10T18:17:50.117Z,18.30
2023-05-10T18:20:16.965Z,18.30
2023-05-10T18:22:46.923Z,18.30
2023-05-10T18:25:13.671Z,18.30
2023-05-10T18:27:40.362Z,18.20
2023-05-10T18:30:10.106Z,18.20
2023-05-10T18:32:38.448Z,18.20
2023-05-10T18:35:06.821Z,18.20
2023-05-10T18:37:33.870Z,18.20
2023-05-10T18:40:00.863Z,18.20
2023-05-10T18:42:27.934Z,18.10
2023-05-10T18:44:54.659Z,18.10
2023-05-10T18:47:21.764Z,18.10
2023-05-10T18:49:48.422Z,18.20
2023-05-10T18:52:16.132Z,18.20
2023-05-10T18:54:43.549Z,18.10
2023-05-10T18:57:10.646Z,18.20
2023-05-10T18:59:37.273Z,18.20
2023-05-10T19:02:04.363Z,18.10
2023-05-10T19:04:31.074Z,17.90
2023-05-10T19:06:57.945Z,17.80
2023-05-10T19:09:26.089Z,17.70
2023-05-10T19:11:52.771Z,17.60
2023-05-10T19:14:19.949Z,17.50
2023-05-10T19:16:47.102Z,17.30
2023-05-10T19:19:13.960Z,17.20
2023-05-10T19:21:40.917Z,17.20
2023-05-10T19:24:07.825Z,17.20
2023-05-10T19:26:35.737Z,17.30
2023-05-10T19:29:02.439Z,17.30
2023-05-10T19:31:29.613Z,17.30
2023-05-10T19:33:57.995Z,17.30
2023-05-10T19:36:26.634Z,17.30
2023-05-10T19:38:53.905Z,17.30
2023-05-10T19:41:21.907Z,17.20
2023-05-10T19:43:48.559Z,17.20
2023-05-10T19:46:16.622Z,17.10
2023-05-10T19:48:46.834Z,16.90
2023-05-10T19:51:13.975Z,16.80
2023-05-10T19:53:44.181Z,16.80
2023-05-10T19:56:11.020Z,16.70
2023-05-10T19:58:37.663Z,16.60
2023-05-10T20:01:07.299Z,16.50
2023-05-10T20:03:34.447Z,16.50
2023-05-10T20:06:01.374Z,16.40
2023-05-10T20:08:28.399Z,16.40
2023-05-10T20:10:55.159Z,16.40
2023-05-10T20:13:21.852Z,16.40
2023-05-10T20:15:48.907Z,16.40
2023-05-10T20:18:15.544Z,16.50
2023-05-10T20:20:42.271Z,16.40
2023-05-10T20:23:09.446Z,16.40
2023-05-10T20:25:37.170Z,16.50
2023-05-10T20:28:03.827Z,16.40
2023-05-10T20:30:30.717Z,16.40
2023-05-10T20:32:57.989Z,16.30
2023-05-10T20:35:24.812Z,16.20
2023-05-10T20:37:51.565Z,16.20
2023-05-10T20:40:18.487Z,16.30
2023-05-10T20:42:45.907Z,16.30
2023-05-10T20:45:12.618Z,16.40
2023-05-10T20:47:39.447Z,16.40
2023-05-10T20:50:06.478Z,16.40
2023-05-10T20:52:33.154Z,16.40
2023-05-10T20:54:59.725Z,16.50
2023-05-10T20:57:26.500Z,16.50
2023-05-10T20:59:53.303Z,16.50
2023-05-10T21:02:20.071Z,16.50
2023-05-10T21:04:46.681Z,16.50
2023-05-10T21:07:13.388Z,16.50
2023-05-10T21:09:40.103Z,16.40
2023-05-10T21:12:07.855Z,16.50
2023-05-10T21:14:35.428Z,16.50
2023-05-10T21:17:02.071Z,16.50
2023-05-10T21:19:28.673Z,16.50
2023-05-10T21:21:57.022Z,16.50
2023-05-10T21:24:23.914Z,16.50
2023-05-10T21:26:50.589Z,16.50
2023-05-10T21:29:17.305Z,16.50
2023-05-10T21:31:44.018Z,16.50
2023-05-10T21:34:13.387Z,16.50
2023-05-10T21:36:40.039Z,16.40
2023-05-10T21:39:06.708Z,16.40
2023-05-10T21:41:33.334Z,16.40
2023-05-10T21:44:00.030Z,16.40
2023-05-10T21:46:26.901Z,16.40
2023-05-10T21:48:53.867Z,16.40
2023-05-10T21:51:21.734Z,16.40
2023-05-10T21:53:48.375Z,16.40
2023-05-10T21:56:15.025Z,16.40
2023-05-10T21:58:41.745Z,16.40
2023-05-10T22:01:08.572Z,16.40
2023-05-10T22:03:35.402Z,16.40
2023-05-10T22:06:02.110Z,16.40
2023-05-10T22:08:28.756Z,16.40
2023-05-10T22:10:55.511Z,16.40
2023-05-10T22:13:22.352Z,16.40
2023-05-10T22:15:49.304Z,16.40
2023-05-10T22:18:16.196Z,16.40
2023-05-10T22:20:46.403Z,16.40
2023-05-10T22:23:13.451Z,16.40
2023-05-10T22:25:40.255Z,16.40
2023-05-10T22:28:07.916Z,16.40
2023-05-10T22:30:34.952Z,16.30
2023-05-10T22:33:01.940Z,16.30
2023-05-10T22:35:28.697Z,16.30
2023-05-10T22:37:55.441Z,16.30
2023-05-10T22:40:22.192Z,16.30
2023-05-10T22:42:48.804Z,16.30
2023-05-10T22:45:15.421Z,16.30
2023-05-10T22:47:42.293Z,16.30
2023-05-10T22:50:09.301Z,16.30
2023-05-10T22:52:38.695Z,16.20
2023-05-10T22:55:06.261Z,16.20
2023-05-10T22:57:33.375Z,16.20
2023-05-10T23:00:00.085Z,16.20
2023-05-10T23:02:27.313Z,16.20
2023-05-10T23:04:54.055Z,16.20
2023-05-10T23:07:20.979Z,16.20
2023-05-10T23:09:48.688Z,16.30
2023-05-10T23:12:15.521Z,16.20
2023-05-10T23:14:42.249Z,16.30
2023-05-10T23:17:08.962Z,16.30
2023-05-10T23:19:35.597Z,16.30
2023-05-10T23:22:02.250Z,16.30
2023-05-10T23:24:29.170Z,16.30
2023-05-10T23:26:55.917Z,16.30
2023-05-10T23:29:23.868Z,16.30
2023-05-10T23:31:51.246Z,16.30
2023-05-10T23:34:18.130Z,16.30
2023-05-10T23:36:44.860Z,16.20
2023-05-10T23:39:11.977Z,16.20
2023-05-10T23:41:38.735Z,16.10
2023-05-10T23:44:05.498Z,16.10
2023-05-10T23:46:32.218Z,16.10
2023-05-10T23:48:58.943Z,16.10
2023-05-10T23:51:25.984Z,16.10
2023-05-10T23:53:52.704Z,16.10
2023-05-10T23:56:19.381Z,16.10
2023-05-10T23:58:46.342Z,16.20
